sensor_id;sensor_type;location;lat;lon;timestamp;P1;durP1;ratioP1;P2;durP2;ratioP2
19131;SDS011;9698;51.976;7.570;2023-11-22T00:02:17;10.60;;;7.87;;
19131;SDS011;9698;51.976;7.570;2023-11-22T00:04:46;9.60;;;7.63;;
19131;SDS011;9698;51.976;7.570;2023-11-22T00:07:14;9.43;;;7.50;;
19131;SDS011;9698;51.976;7.570;2023-11-22T00:09:42;8.73;;;7.73;;
19131;SDS011;9698;51.976;7.570;2023-11-22T00:12:10;10.73;;;7.83;;
19131;SDS011;9698;51.976;7.570;2023-11-22T00:14:37;8.77;;;7.53;;
19131;SDS011;9698;51.976;7.570;2023-11-22T00:17:05;10.97;;;7.90;;
19131;SDS011;9698;51.976;7.570;2023-11-22T00:19:33;10.07;;;7.73;;
19131;SDS011;9698;51.976;7.570;2023-11-22T00:22:01;10.50;;;7.77;;
19131;SDS011;9698;51.976;7.570;2023-11-22T00:24:37;9.07;;;7.70;;
19131;SDS011;9698;51.976;7.570;2023-11-22T00:27:05;9.20;;;7.77;;
19131;SDS011;9698;51.976;7.570;2023-11-22T00:29:33;8.73;;;7.60;;
19131;SDS011;9698;51.976;7.570;2023-11-22T00:32:01;10.27;;;7.00;;
19131;SDS011;9698;51.976;7.570;2023-11-22T00:34:30;10.80;;;7.63;;
19131;SDS011;9698;51.976;7.570;2023-11-22T00:36:58;9.80;;;7.87;;
19131;SDS011;9698;51.976;7.570;2023-11-22T00:39:26;8.67;;;7.10;;
19131;SDS011;9698;51.976;7.570;2023-11-22T00:41:54;8.13;;;6.87;;
19131;SDS011;9698;51.976;7.570;2023-11-22T00:44:22;9.77;;;7.50;;
19131;SDS011;9698;51.976;7.570;2023-11-22T00:46:50;9.33;;;7.07;;
19131;SDS011;9698;51.976;7.570;2023-11-22T00:49:18;8.40;;;7.27;;
19131;SDS011;9698;51.976;7.570;2023-11-22T00:51:46;8.60;;;7.27;;
19131;SDS011;9698;51.976;7.570;2023-11-22T00:54:14;8.13;;;6.70;;
19131;SDS011;9698;51.976;7.570;2023-11-22T00:56:41;8.40;;;7.03;;
19131;SDS011;9698;51.976;7.570;2023-11-22T00:59:09;9.00;;;7.27;;
19131;SDS011;9698;51.976;7.570;2023-11-22T01:01:37;8.53;;;6.80;;
19131;SDS011;9698;51.976;7.570;2023-11-22T01:04:05;8.83;;;6.50;;
19131;SDS011;9698;51.976;7.570;2023-11-22T01:06:33;8.10;;;6.77;;
19131;SDS011;9698;51.976;7.570;2023-11-22T01:09:03;8.27;;;6.57;;
19131;SDS011;9698;51.976;7.570;2023-11-22T01:11:31;10.13;;;7.47;;
19131;SDS011;9698;51.976;7.570;2023-11-22T01:13:59;9.77;;;7.10;;
19131;SDS011;9698;51.976;7.570;2023-11-22T01:16:27;8.77;;;6.80;;
19131;SDS011;9698;51.976;7.570;2023-11-22T01:18:55;7.80;;;6.40;;
19131;SDS011;9698;51.976;7.570;2023-11-22T01:21:22;8.60;;;6.77;;
19131;SDS011;9698;51.976;7.570;2023-11-22T01:23:51;9.67;;;6.80;;
19131;SDS011;9698;51.976;7.570;2023-11-22T01:26:19;8.00;;;6.50;;
19131;SDS011;9698;51.976;7.570;2023-11-22T01:28:47;7.07;;;6.33;;
19131;SDS011;9698;51.976;7.570;2023-11-22T01:31:14;7.50;;;6.63;;
19131;SDS011;9698;51.976;7.570;2023-11-22T01:33:46;7.97;;;6.17;;
19131;SDS011;9698;51.976;7.570;2023-11-22T01:36:15;9.37;;;6.40;;
19131;SDS011;9698;51.976;7.570;2023-11-22T01:38:42;9.83;;;6.70;;
19131;SDS011;9698;51.976;7.570;2023-11-22T01:41:12;11.47;;;6.80;;
19131;SDS011;9698;51.976;7.570;2023-11-22T01:43:40;9.40;;;6.57;;
19131;SDS011;9698;51.976;7.570;2023-11-22T01:46:08;10.50;;;6.70;;
19131;SDS011;9698;51.976;7.570;2023-11-22T01:48:37;9.07;;;6.70;;
19131;SDS011;9698;51.976;7.570;2023-11-22T01:51:05;9.20;;;6.40;;
19131;SDS011;9698;51.976;7.570;2023-11-22T01:53:34;9.77;;;6.47;;
19131;SDS011;9698;51.976;7.570;2023-11-22T01:56:03;11.00;;;7.17;;
19131;SDS011;9698;51.976;7.570;2023-11-22T01:58:31;9.27;;;6.87;;
19131;SDS011;9698;51.976;7.570;2023-11-22T02:00:59;9.63;;;6.53;;
19131;SDS011;9698;51.976;7.570;2023-11-22T02:03:28;9.20;;;6.63;;
19131;SDS011;9698;51.976;7.570;2023-11-22T02:05:57;8.30;;;6.77;;
19131;SDS011;9698;51.976;7.570;2023-11-22T02:08:26;8.70;;;6.57;;
19131;SDS011;9698;51.976;7.570;2023-11-22T02:10:58;9.50;;;6.50;;
19131;SDS011;9698;51.976;7.570;2023-11-22T02:13:29;9.10;;;6.23;;
19131;SDS011;9698;51.976;7.570;2023-11-22T02:15:57;10.07;;;6.87;;
19131;SDS011;9698;51.976;7.570;2023-11-22T02:18:27;10.33;;;6.77;;
19131;SDS011;9698;51.976;7.570;2023-11-22T02:20:55;9.43;;;6.57;;
19131;SDS011;9698;51.976;7.570;2023-11-22T02:23:24;8.57;;;6.90;;
19131;SDS011;9698;51.976;7.570;2023-11-22T02:25:52;8.77;;;6.50;;
19131;SDS011;9698;51.976;7.570;2023-11-22T02:28:21;9.80;;;7.40;;
19131;SDS011;9698;51.976;7.570;2023-11-22T02:30:48;11.33;;;6.80;;
19131;SDS011;9698;51.976;7.570;2023-11-22T02:33:16;9.77;;;7.40;;
19131;SDS011;9698;51.976;7.570;2023-11-22T02:35:44;8.17;;;6.53;;
19131;SDS011;9698;51.976;7.570;2023-11-22T02:38:12;9.07;;;6.37;;
19131;SDS011;9698;51.976;7.570;2023-11-22T02:40:40;9.03;;;6.30;;
19131;SDS011;9698;51.976;7.570;2023-11-22T02:43:07;8.57;;;6.60;;
19131;SDS011;9698;51.976;7.570;2023-11-22T02:45:35;9.10;;;6.90;;
19131;SDS011;9698;51.976;7.570;2023-11-22T02:48:04;8.43;;;6.13;;
19131;SDS011;9698;51.976;7.570;2023-11-22T02:50:35;8.40;;;6.27;;
19131;SDS011;9698;51.976;7.570;2023-11-22T02:53:03;8.63;;;6.63;;
19131;SDS011;9698;51.976;7.570;2023-11-22T02:55:31;9.03;;;6.73;;
19131;SDS011;9698;51.976;7.570;2023-11-22T02:57:59;10.20;;;6.90;;
19131;SDS011;9698;51.976;7.570;2023-11-22T03:00:28;8.23;;;6.50;;
19131;SDS011;9698;51.976;7.570;2023-11-22T03:02:56;9.27;;;6.93;;
19131;SDS011;9698;51.976;7.570;2023-11-22T03:05:23;11.00;;;6.50;;
19131;SDS011;9698;51.976;7.570;2023-11-22T03:07:51;9.60;;;6.73;;
19131;SDS011;9698;51.976;7.570;2023-11-22T03:10:19;8.50;;;6.60;;
19131;SDS011;9698;51.976;7.570;2023-11-22T03:12:47;8.57;;;6.67;;
19131;SDS011;9698;51.976;7.570;2023-11-22T03:15:14;11.10;;;6.80;;
19131;SDS011;9698;51.976;7.570;2023-11-22T03:17:42;8.63;;;6.43;;
19131;SDS011;9698;51.976;7.570;2023-11-22T03:20:11;9.50;;;6.70;;
19131;SDS011;9698;51.976;7.570;2023-11-22T03:22:38;8.93;;;6.50;;
19131;SDS011;9698;51.976;7.570;2023-11-22T03:25:07;8.63;;;6.00;;
19131;SDS011;9698;51.976;7.570;2023-11-22T03:27:36;11.80;;;7.80;;
19131;SDS011;9698;51.976;7.570;2023-11-22T03:30:05;10.13;;;6.47;;
19131;SDS011;9698;51.976;7.570;2023-11-22T03:32:39;8.17;;;6.17;;
19131;SDS011;9698;51.976;7.570;2023-11-22T03:35:08;11.93;;;7.23;;
19131;SDS011;9698;51.976;7.570;2023-11-22T03:37:36;11.03;;;6.90;;
19131;SDS011;9698;51.976;7.570;2023-11-22T03:40:05;8.50;;;6.67;;
19131;SDS011;9698;51.976;7.570;2023-11-22T03:42:35;9.47;;;6.77;;
19131;SDS011;9698;51.976;7.570;2023-11-22T03:45:06;11.40;;;6.90;;
19131;SDS011;9698;51.976;7.570;2023-11-22T03:47:34;11.43;;;7.10;;
19131;SDS011;9698;51.976;7.570;2023-11-22T03:50:05;9.47;;;6.83;;
19131;SDS011;9698;51.976;7.570;2023-11-22T03:52:34;7.53;;;6.03;;
19131;SDS011;9698;51.976;7.570;2023-11-22T03:55:02;8.30;;;6.37;;
19131;SDS011;9698;51.976;7.570;2023-11-22T03:57:31;8.17;;;6.63;;
19131;SDS011;9698;51.976;7.570;2023-11-22T03:59:59;9.43;;;6.13;;
19131;SDS011;9698;51.976;7.570;2023-11-22T04:02:26;8.37;;;6.33;;
19131;SDS011;9698;51.976;7.570;2023-11-22T04:04:55;11.03;;;6.40;;
19131;SDS011;9698;51.976;7.570;2023-11-22T04:07:23;10.10;;;7.20;;
19131;SDS011;9698;51.976;7.570;2023-11-22T04:09:51;9.93;;;6.93;;
19131;SDS011;9698;51.976;7.570;2023-11-22T04:12:18;8.30;;;6.60;;
19131;SDS011;9698;51.976;7.570;2023-11-22T04:14:46;8.70;;;6.57;;
19131;SDS011;9698;51.976;7.570;2023-11-22T04:17:14;9.67;;;7.17;;
19131;SDS011;9698;51.976;7.570;2023-11-22T04:19:43;9.20;;;6.77;;
19131;SDS011;9698;51.976;7.570;2023-11-22T04:22:11;8.90;;;6.93;;
19131;SDS011;9698;51.976;7.570;2023-11-22T04:24:38;8.40;;;6.13;;
19131;SDS011;9698;51.976;7.570;2023-11-22T04:27:06;8.77;;;6.50;;
19131;SDS011;9698;51.976;7.570;2023-11-22T04:29:34;7.53;;;6.30;;
19131;SDS011;9698;51.976;7.570;2023-11-22T04:32:02;10.50;;;6.87;;
19131;SDS011;9698;51.976;7.570;2023-11-22T04:34:31;8.87;;;6.53;;
19131;SDS011;9698;51.976;7.570;2023-11-22T04:36:59;9.13;;;6.63;;
19131;SDS011;9698;51.976;7.570;2023-11-22T04:39:26;9.27;;;6.57;;
19131;SDS011;9698;51.976;7.570;2023-11-22T04:41:54;7.70;;;6.03;;
19131;SDS011;9698;51.976;7.570;2023-11-22T04:44:22;9.70;;;6.70;;
19131;SDS011;9698;51.976;7.570;2023-11-22T04:46:50;10.47;;;6.83;;
19131;SDS011;9698;51.976;7.570;2023-11-22T04:49:18;8.67;;;6.87;;
19131;SDS011;9698;51.976;7.570;2023-11-22T04:51:45;8.33;;;6.17;;
19131;SDS011;9698;51.976;7.570;2023-11-22T04:54:13;7.77;;;6.50;;
19131;SDS011;9698;51.976;7.570;2023-11-22T04:56:41;7.07;;;6.30;;
19131;SDS011;9698;51.976;7.570;2023-11-22T04:59:09;9.33;;;6.97;;
19131;SDS011;9698;51.976;7.570;2023-11-22T05:01:37;7.93;;;6.00;;
19131;SDS011;9698;51.976;7.570;2023-11-22T05:04:05;9.23;;;6.90;;
19131;SDS011;9698;51.976;7.570;2023-11-22T05:06:33;8.00;;;6.20;;
19131;SDS011;9698;51.976;7.570;2023-11-22T05:09:01;9.13;;;6.10;;
19131;SDS011;9698;51.976;7.570;2023-11-22T05:11:28;8.50;;;6.30;;
19131;SDS011;9698;51.976;7.570;2023-11-22T05:13:56;9.57;;;6.00;;
19131;SDS011;9698;51.976;7.570;2023-11-22T05:16:24;7.27;;;6.30;;
19131;SDS011;9698;51.976;7.570;2023-11-22T05:18:51;7.73;;;6.37;;
19131;SDS011;9698;51.976;7.570;2023-11-22T05:21:19;8.23;;;6.60;;
19131;SDS011;9698;51.976;7.570;2023-11-22T05:23:47;7.37;;;5.77;;
19131;SDS011;9698;51.976;7.570;2023-11-22T05:26:15;8.77;;;6.73;;
19131;SDS011;9698;51.976;7.570;2023-11-22T05:28:42;7.77;;;6.17;;
19131;SDS011;9698;51.976;7.570;2023-11-22T05:31:10;8.13;;;6.20;;
19131;SDS011;9698;51.976;7.570;2023-11-22T05:33:38;8.77;;;6.60;;
19131;SDS011;9698;51.976;7.570;2023-11-22T05:36:07;9.07;;;6.27;;
19131;SDS011;9698;51.976;7.570;2023-11-22T05:38:35;8.63;;;6.37;;
19131;SDS011;9698;51.976;7.570;2023-11-22T05:41:03;9.03;;;6.80;;
19131;SDS011;9698;51.976;7.570;2023-11-22T05:43:31;9.07;;;6.93;;
19131;SDS011;9698;51.976;7.570;2023-11-22T05:46:02;10.50;;;6.60;;
19131;SDS011;9698;51.976;7.570;2023-11-22T05:48:30;8.27;;;6.40;;
19131;SDS011;9698;51.976;7.570;2023-11-22T05:50:58;7.70;;;6.13;;
19131;SDS011;9698;51.976;7.570;2023-11-22T05:53:26;10.23;;;7.00;;
19131;SDS011;9698;51.976;7.570;2023-11-22T05:55:54;8.30;;;6.10;;
19131;SDS011;9698;51.976;7.570;2023-11-22T05:58:22;8.80;;;6.90;;
19131;SDS011;9698;51.976;7.570;2023-11-22T06:00:50;10.30;;;7.43;;
19131;SDS011;9698;51.976;7.570;2023-11-22T06:03:18;9.57;;;7.23;;
19131;SDS011;9698;51.976;7.570;2023-11-22T06:05:45;9.00;;;7.40;;
19131;SDS011;9698;51.976;7.570;2023-11-22T06:08:13;8.80;;;6.57;;
19131;SDS011;9698;51.976;7.570;2023-11-22T06:10:41;12.00;;;7.07;;
19131;SDS011;9698;51.976;7.570;2023-11-22T06:13:09;9.00;;;6.43;;
19131;SDS011;9698;51.976;7.570;2023-11-22T06:15:38;9.33;;;6.97;;
19131;SDS011;9698;51.976;7.570;2023-11-22T06:18:06;8.43;;;6.67;;
19131;SDS011;9698;51.976;7.570;2023-11-22T06:20:34;7.47;;;6.07;;
19131;SDS011;9698;51.976;7.570;2023-11-22T06:23:02;8.60;;;6.47;;
19131;SDS011;9698;51.976;7.570;2023-11-22T06:25:30;8.40;;;6.10;;
19131;SDS011;9698;51.976;7.570;2023-11-22T06:27:57;8.37;;;6.10;;
19131;SDS011;9698;51.976;7.570;2023-11-22T06:30:28;9.70;;;6.40;;
19131;SDS011;9698;51.976;7.570;2023-11-22T06:32:56;10.70;;;6.70;;
19131;SDS011;9698;51.976;7.570;2023-11-22T06:35:24;8.83;;;6.53;;
19131;SDS011;9698;51.976;7.570;2023-11-22T06:37:52;8.03;;;6.23;;
19131;SDS011;9698;51.976;7.570;2023-11-22T06:40:19;8.83;;;6.30;;
19131;SDS011;9698;51.976;7.570;2023-11-22T06:42:47;8.50;;;6.67;;
19131;SDS011;9698;51.976;7.570;2023-11-22T06:45:15;8.97;;;7.30;;
19131;SDS011;9698;51.976;7.570;2023-11-22T06:47:43;8.83;;;6.53;;
19131;SDS011;9698;51.976;7.570;2023-11-22T06:50:11;8.07;;;6.43;;
19131;SDS011;9698;51.976;7.570;2023-11-22T06:52:40;9.83;;;6.57;;
19131;SDS011;9698;51.976;7.570;2023-11-22T06:55:08;8.57;;;6.17;;
19131;SDS011;9698;51.976;7.570;2023-11-22T06:57:37;9.07;;;6.53;;
19131;SDS011;9698;51.976;7.570;2023-11-22T07:00:06;9.60;;;6.57;;
19131;SDS011;9698;51.976;7.570;2023-11-22T07:02:35;8.70;;;6.07;;
19131;SDS011;9698;51.976;7.570;2023-11-22T07:05:05;7.57;;;6.07;;
19131;SDS011;9698;51.976;7.570;2023-11-22T07:07:34;8.33;;;6.13;;
19131;SDS011;9698;51.976;7.570;2023-11-22T07:10:02;8.40;;;6.47;;
19131;SDS011;9698;51.976;7.570;2023-11-22T07:12:31;9.77;;;5.93;;
19131;SDS011;9698;51.976;7.570;2023-11-22T07:15:00;9.00;;;6.60;;
19131;SDS011;9698;51.976;7.570;2023-11-22T07:17:29;9.80;;;6.77;;
19131;SDS011;9698;51.976;7.570;2023-11-22T07:19:57;9.33;;;6.17;;
19131;SDS011;9698;51.976;7.570;2023-11-22T07:22:24;9.20;;;6.23;;
19131;SDS011;9698;51.976;7.570;2023-11-22T07:24:52;8.13;;;6.40;;
19131;SDS011;9698;51.976;7.570;2023-11-22T07:27:21;8.43;;;6.20;;
19131;SDS011;9698;51.976;7.570;2023-11-22T07:29:52;8.63;;;6.53;;
19131;SDS011;9698;51.976;7.570;2023-11-22T07:32:19;6.13;;;5.40;;
19131;SDS011;9698;51.976;7.570;2023-11-22T07:34:47;9.20;;;6.23;;
19131;SDS011;9698;51.976;7.570;2023-11-22T07:37:15;7.07;;;6.20;;
19131;SDS011;9698;51.976;7.570;2023-11-22T07:39:44;8.80;;;5.77;;
19131;SDS011;9698;51.976;7.570;2023-11-22T07:42:12;8.57;;;6.20;;
19131;SDS011;9698;51.976;7.570;2023-11-22T07:44:39;8.50;;;6.23;;
19131;SDS011;9698;51.976;7.570;2023-11-22T07:47:08;7.83;;;6.30;;
19131;SDS011;9698;51.976;7.570;2023-11-22T07:49:38;8.80;;;6.57;;
19131;SDS011;9698;51.976;7.570;2023-11-22T07:52:08;7.80;;;6.07;;
19131;SDS011;9698;51.976;7.570;2023-11-22T07:54:39;9.57;;;6.43;;
19131;SDS011;9698;51.976;7.570;2023-11-22T07:57:07;12.17;;;7.30;;
19131;SDS011;9698;51.976;7.570;2023-11-22T07:59:35;10.13;;;7.73;;
19131;SDS011;9698;51.976;7.570;2023-11-22T08:02:04;9.80;;;6.97;;
19131;SDS011;9698;51.976;7.570;2023-11-22T08:04:37;10.10;;;6.93;;
19131;SDS011;9698;51.976;7.570;2023-11-22T08:07:06;8.80;;;6.23;;
19131;SDS011;9698;51.976;7.570;2023-11-22T08:09:34;10.03;;;7.03;;
19131;SDS011;9698;51.976;7.570;2023-11-22T08:12:02;9.27;;;6.73;;
19131;SDS011;9698;51.976;7.570;2023-11-22T08:14:32;9.90;;;6.33;;
19131;SDS011;9698;51.976;7.570;2023-11-22T08:17:00;8.43;;;6.70;;
19131;SDS011;9698;51.976;7.570;2023-11-22T08:19:28;9.53;;;6.67;;
19131;SDS011;9698;51.976;7.570;2023-11-22T08:21:56;10.00;;;6.47;;
19131;SDS011;9698;51.976;7.570;2023-11-22T08:24:24;8.57;;;6.33;;
19131;SDS011;9698;51.976;7.570;2023-11-22T08:26:52;9.13;;;6.37;;
19131;SDS011;9698;51.976;7.570;2023-11-22T08:29:20;8.70;;;6.13;;
19131;SDS011;9698;51.976;7.570;2023-11-22T08:31:48;7.20;;;5.80;;
19131;SDS011;9698;51.976;7.570;2023-11-22T08:34:16;9.00;;;6.33;;
19131;SDS011;9698;51.976;7.570;2023-11-22T08:36:44;7.47;;;5.93;;
19131;SDS011;9698;51.976;7.570;2023-11-22T08:39:12;8.03;;;6.30;;
19131;SDS011;9698;51.976;7.570;2023-11-22T08:41:40;11.07;;;5.87;;
19131;SDS011;9698;51.976;7.570;2023-11-22T08:44:08;8.03;;;5.87;;
19131;SDS011;9698;51.976;7.570;2023-11-22T08:46:36;7.77;;;5.80;;
19131;SDS011;9698;51.976;7.570;2023-11-22T08:49:03;9.20;;;6.17;;
19131;SDS011;9698;51.976;7.570;2023-11-22T08:51:32;12.13;;;6.13;;
19131;SDS011;9698;51.976;7.570;2023-11-22T08:54:00;12.27;;;6.17;;
19131;SDS011;9698;51.976;7.570;2023-11-22T08:56:28;11.47;;;5.87;;
19131;SDS011;9698;51.976;7.570;2023-11-22T08:58:56;11.03;;;5.90;;
19131;SDS011;9698;51.976;7.570;2023-11-22T09:01:23;9.73;;;5.90;;
19131;SDS011;9698;51.976;7.570;2023-11-22T09:03:52;7.43;;;6.00;;
19131;SDS011;9698;51.976;7.570;2023-11-22T09:06:20;8.87;;;5.57;;
19131;SDS011;9698;51.976;7.570;2023-11-22T09:08:48;8.40;;;5.83;;
19131;SDS011;9698;51.976;7.570;2023-11-22T09:11:16;7.60;;;5.77;;
19131;SDS011;9698;51.976;7.570;2023-11-22T09:13:46;9.07;;;6.17;;
19131;SDS011;9698;51.976;7.570;2023-11-22T09:16:14;8.83;;;6.87;;
19131;SDS011;9698;51.976;7.570;2023-11-22T09:18:42;8.97;;;6.10;;
19131;SDS011;9698;51.976;7.570;2023-11-22T09:21:10;8.00;;;5.87;;
19131;SDS011;9698;51.976;7.570;2023-11-22T09:23:42;8.10;;;6.20;;
19131;SDS011;9698;51.976;7.570;2023-11-22T09:26:11;7.77;;;6.00;;
19131;SDS011;9698;51.976;7.570;2023-11-22T09:28:39;7.70;;;5.83;;
19131;SDS011;9698;51.976;7.570;2023-11-22T09:31:07;8.63;;;5.40;;
19131;SDS011;9698;51.976;7.570;2023-11-22T09:33:38;5.90;;;5.03;;
19131;SDS011;9698;51.976;7.570;2023-11-22T09:36:06;5.63;;;4.70;;
19131;SDS011;9698;51.976;7.570;2023-11-22T09:38:37;6.10;;;4.63;;
19131;SDS011;9698;51.976;7.570;2023-11-22T09:41:05;6.07;;;4.33;;
19131;SDS011;9698;51.976;7.570;2023-11-22T09:43:35;6.63;;;4.37;;
19131;SDS011;9698;51.976;7.570;2023-11-22T09:46:06;4.57;;;3.97;;
19131;SDS011;9698;51.976;7.570;2023-11-22T09:48:37;5.97;;;4.60;;
19131;SDS011;9698;51.976;7.570;2023-11-22T09:51:09;5.07;;;3.97;;
19131;SDS011;9698;51.976;7.570;2023-11-22T09:53:49;4.43;;;3.50;;
19131;SDS011;9698;51.976;7.570;2023-11-22T09:56:22;3.83;;;3.10;;
19131;SDS011;9698;51.976;7.570;2023-11-22T09:58:52;4.87;;;3.40;;
19131;SDS011;9698;51.976;7.570;2023-11-22T10:01:22;4.00;;;3.20;;
19131;SDS011;9698;51.976;7.570;2023-11-22T10:03:50;5.67;;;3.57;;
19131;SDS011;9698;51.976;7.570;2023-11-22T10:06:18;7.07;;;3.50;;
19131;SDS011;9698;51.976;7.570;2023-11-22T10:08:47;3.90;;;3.20;;
19131;SDS011;9698;51.976;7.570;2023-11-22T10:11:15;6.13;;;3.67;;
19131;SDS011;9698;51.976;7.570;2023-11-22T10:13:44;5.63;;;3.60;;
19131;SDS011;9698;51.976;7.570;2023-11-22T10:16:16;4.63;;;3.53;;
19131;SDS011;9698;51.976;7.570;2023-11-22T10:18:46;5.60;;;3.27;;
19131;SDS011;9698;51.976;7.570;2023-11-22T10:21:22;4.33;;;3.33;;
19131;SDS011;9698;51.976;7.570;2023-11-22T10:23:53;4.10;;;2.73;;
19131;SDS011;9698;51.976;7.570;2023-11-22T10:26:22;4.37;;;2.77;;
19131;SDS011;9698;51.976;7.570;2023-11-22T10:28:51;3.70;;;2.60;;
19131;SDS011;9698;51.976;7.570;2023-11-22T10:31:19;4.10;;;2.90;;
19131;SDS011;9698;51.976;7.570;2023-11-22T10:33:48;4.47;;;2.73;;
19131;SDS011;9698;51.976;7.570;2023-11-22T10:36:16;5.13;;;3.07;;
19131;SDS011;9698;51.976;7.570;2023-11-22T10:38:45;5.03;;;3.30;;
19131;SDS011;9698;51.976;7.570;2023-11-22T10:41:14;3.77;;;2.90;;
19131;SDS011;9698;51.976;7.570;2023-11-22T10:43:42;6.77;;;3.30;;
19131;SDS011;9698;51.976;7.570;2023-11-22T10:46:10;5.40;;;3.47;;
19131;SDS011;9698;51.976;7.570;2023-11-22T10:48:41;5.53;;;4.20;;
19131;SDS011;9698;51.976;7.570;2023-11-22T10:51:10;8.60;;;3.30;;
19131;SDS011;9698;51.976;7.570;2023-11-22T10:53:41;4.53;;;3.40;;
19131;SDS011;9698;51.976;7.570;2023-11-22T10:56:13;5.43;;;3.20;;
19131;SDS011;9698;51.976;7.570;2023-11-22T10:58:44;5.07;;;3.53;;
19131;SDS011;9698;51.976;7.570;2023-11-22T11:01:15;3.60;;;2.97;;
19131;SDS011;9698;51.976;7.570;2023-11-22T11:03:46;3.10;;;2.60;;
19131;SDS011;9698;51.976;7.570;2023-11-22T11:06:23;6.60;;;2.90;;
19131;SDS011;9698;51.976;7.570;2023-11-22T11:08:53;5.07;;;2.83;;
19131;SDS011;9698;51.976;7.570;2023-11-22T11:11:23;3.80;;;2.80;;
19131;SDS011;9698;51.976;7.570;2023-11-22T11:13:52;4.30;;;2.97;;
19131;SDS011;9698;51.976;7.570;2023-11-22T11:16:20;3.20;;;2.80;;
19131;SDS011;9698;51.976;7.570;2023-11-22T11:18:49;4.67;;;3.17;;
19131;SDS011;9698;51.976;7.570;2023-11-22T11:21:18;3.93;;;3.10;;
19131;SDS011;9698;51.976;7.570;2023-11-22T11:23:47;4.63;;;2.87;;
19131;SDS011;9698;51.976;7.570;2023-11-22T11:26:23;2.60;;;2.40;;
19131;SDS011;9698;51.976;7.570;2023-11-22T11:28:52;3.13;;;2.63;;
19131;SDS011;9698;51.976;7.570;2023-11-22T11:31:21;2.70;;;2.50;;
19131;SDS011;9698;51.976;7.570;2023-11-22T11:33:53;2.67;;;2.30;;
19131;SDS011;9698;51.976;7.570;2023-11-22T11:36:22;3.30;;;2.30;;
19131;SDS011;9698;51.976;7.570;2023-11-22T11:38:51;3.60;;;2.53;;
19131;SDS011;9698;51.976;7.570;2023-11-22T11:41:24;3.00;;;2.40;;
19131;SDS011;9698;51.976;7.570;2023-11-22T11:43:53;3.87;;;2.33;;
19131;SDS011;9698;51.976;7.570;2023-11-22T11:46:22;3.63;;;2.53;;
19131;SDS011;9698;51.976;7.570;2023-11-22T11:48:52;3.50;;;2.57;;
19131;SDS011;9698;51.976;7.570;2023-11-22T11:51:21;3.37;;;2.70;;
19131;SDS011;9698;51.976;7.570;2023-11-22T11:53:50;4.60;;;2.90;;
19131;SDS011;9698;51.976;7.570;2023-11-22T11:56:18;3.07;;;2.77;;
19131;SDS011;9698;51.976;7.570;2023-11-22T11:58:46;3.60;;;2.70;;
19131;SDS011;9698;51.976;7.570;2023-11-22T12:01:16;3.80;;;2.93;;
19131;SDS011;9698;51.976;7.570;2023-11-22T12:03:46;2.70;;;2.50;;
19131;SDS011;9698;51.976;7.570;2023-11-22T12:06:16;3.93;;;2.50;;
19131;SDS011;9698;51.976;7.570;2023-11-22T12:08:46;3.53;;;2.67;;
19131;SDS011;9698;51.976;7.570;2023-11-22T12:11:14;4.73;;;2.73;;
19131;SDS011;9698;51.976;7.570;2023-11-22T12:13:44;4.60;;;2.60;;
19131;SDS011;9698;51.976;7.570;2023-11-22T12:16:14;2.90;;;2.20;;
19131;SDS011;9698;51.976;7.570;2023-11-22T12:18:45;5.90;;;2.73;;
19131;SDS011;9698;51.976;7.570;2023-11-22T12:21:14;3.73;;;2.90;;
19131;SDS011;9698;51.976;7.570;2023-11-22T12:23:43;6.30;;;3.10;;
19131;SDS011;9698;51.976;7.570;2023-11-22T12:26:13;3.87;;;3.03;;
19131;SDS011;9698;51.976;7.570;2023-11-22T12:28:44;5.43;;;3.10;;
19131;SDS011;9698;51.976;7.570;2023-11-22T12:31:27;3.37;;;2.70;;
19131;SDS011;9698;51.976;7.570;2023-11-22T12:33:56;4.27;;;3.00;;
19131;SDS011;9698;51.976;7.570;2023-11-22T12:36:25;4.50;;;3.07;;
19131;SDS011;9698;51.976;7.570;2023-11-22T12:38:55;5.87;;;3.00;;
19131;SDS011;9698;51.976;7.570;2023-11-22T12:41:24;4.13;;;2.70;;
19131;SDS011;9698;51.976;7.570;2023-11-22T12:44:05;5.87;;;2.83;;
19131;SDS011;9698;51.976;7.570;2023-11-22T12:46:46;5.53;;;3.40;;
19131;SDS011;9698;51.976;7.570;2023-11-22T12:49:23;5.97;;;3.47;;
19131;SDS011;9698;51.976;7.570;2023-11-22T12:51:52;5.93;;;2.83;;
19131;SDS011;9698;51.976;7.570;2023-11-22T12:54:20;4.93;;;3.23;;
19131;SDS011;9698;51.976;7.570;2023-11-22T12:56:49;2.43;;;2.23;;
19131;SDS011;9698;51.976;7.570;2023-11-22T12:59:20;3.63;;;2.80;;
19131;SDS011;9698;51.976;7.570;2023-11-22T13:01:48;3.57;;;2.80;;
19131;SDS011;9698;51.976;7.570;2023-11-22T13:04:16;3.27;;;2.70;;
19131;SDS011;9698;51.976;7.570;2023-11-22T13:06:45;3.20;;;2.73;;
19131;SDS011;9698;51.976;7.570;2023-11-22T13:09:12;3.63;;;2.53;;
19131;SDS011;9698;51.976;7.570;2023-11-22T13:11:41;3.77;;;2.77;;
19131;SDS011;9698;51.976;7.570;2023-11-22T13:14:10;3.57;;;3.00;;
19131;SDS011;9698;51.976;7.570;2023-11-22T13:16:40;4.03;;;2.80;;
19131;SDS011;9698;51.976;7.570;2023-11-22T13:19:09;3.80;;;2.90;;
19131;SDS011;9698;51.976;7.570;2023-11-22T13:21:37;4.60;;;2.97;;
19131;SDS011;9698;51.976;7.570;2023-11-22T13:24:07;4.57;;;2.90;;
19131;SDS011;9698;51.976;7.570;2023-11-22T13:26:35;5.60;;;2.90;;
19131;SDS011;9698;51.976;7.570;2023-11-22T13:29:03;3.77;;;3.00;;
19131;SDS011;9698;51.976;7.570;2023-11-22T13:31:32;3.63;;;2.97;;
19131;SDS011;9698;51.976;7.570;2023-11-22T13:34:00;3.33;;;2.70;;
19131;SDS011;9698;51.976;7.570;2023-11-22T13:36:28;5.40;;;2.80;;
19131;SDS011;9698;51.976;7.570;2023-11-22T13:38:57;3.37;;;2.90;;
19131;SDS011;9698;51.976;7.570;2023-11-22T13:41:25;4.73;;;3.10;;
19131;SDS011;9698;51.976;7.570;2023-11-22T13:43:53;3.27;;;2.90;;
19131;SDS011;9698;51.976;7.570;2023-11-22T13:46:21;3.97;;;2.90;;
19131;SDS011;9698;51.976;7.570;2023-11-22T13:48:49;3.00;;;2.70;;
19131;SDS011;9698;51.976;7.570;2023-11-22T13:51:17;3.90;;;2.93;;
19131;SDS011;9698;51.976;7.570;2023-11-22T13:53:45;3.83;;;2.90;;
19131;SDS011;9698;51.976;7.570;2023-11-22T13:56:19;5.03;;;3.00;;
19131;SDS011;9698;51.976;7.570;2023-11-22T13:58:47;4.00;;;2.90;;
19131;SDS011;9698;51.976;7.570;2023-11-22T14:01:15;3.90;;;3.00;;
19131;SDS011;9698;51.976;7.570;2023-11-22T14:03:47;3.80;;;3.00;;
19131;SDS011;9698;51.976;7.570;2023-11-22T14:06:15;4.40;;;3.20;;
19131;SDS011;9698;51.976;7.570;2023-11-22T14:08:43;4.33;;;3.07;;
19131;SDS011;9698;51.976;7.570;2023-11-22T14:11:11;4.07;;;3.03;;
19131;SDS011;9698;51.976;7.570;2023-11-22T14:13:39;5.23;;;3.30;;
19131;SDS011;9698;51.976;7.570;2023-11-22T14:16:08;3.97;;;3.37;;
19131;SDS011;9698;51.976;7.570;2023-11-22T14:18:36;3.87;;;3.30;;
19131;SDS011;9698;51.976;7.570;2023-11-22T14:21:05;5.93;;;3.30;;
19131;SDS011;9698;51.976;7.570;2023-11-22T14:23:34;3.80;;;3.17;;
19131;SDS011;9698;51.976;7.570;2023-11-22T14:26:02;4.10;;;3.40;;
19131;SDS011;9698;51.976;7.570;2023-11-22T14:28:30;3.87;;;3.43;;
19131;SDS011;9698;51.976;7.570;2023-11-22T14:30:59;4.43;;;3.43;;
19131;SDS011;9698;51.976;7.570;2023-11-22T14:33:27;4.57;;;3.10;;
19131;SDS011;9698;51.976;7.570;2023-11-22T14:35:58;3.80;;;3.40;;
19131;SDS011;9698;51.976;7.570;2023-11-22T14:38:26;4.60;;;3.60;;
19131;SDS011;9698;51.976;7.570;2023-11-22T14:40:54;4.50;;;3.53;;
19131;SDS011;9698;51.976;7.570;2023-11-22T14:43:22;3.93;;;3.47;;
19131;SDS011;9698;51.976;7.570;2023-11-22T14:45:50;5.07;;;3.47;;
19131;SDS011;9698;51.976;7.570;2023-11-22T14:48:19;5.17;;;3.70;;
19131;SDS011;9698;51.976;7.570;2023-11-22T14:50:47;4.27;;;3.77;;
19131;SDS011;9698;51.976;7.570;2023-11-22T14:53:15;4.33;;;3.80;;
19131;SDS011;9698;51.976;7.570;2023-11-22T14:55:43;5.00;;;3.90;;
19131;SDS011;9698;51.976;7.570;2023-11-22T14:58:11;5.20;;;4.60;;
19131;SDS011;9698;51.976;7.570;2023-11-22T15:00:38;7.77;;;5.27;;
19131;SDS011;9698;51.976;7.570;2023-11-22T15:03:06;7.60;;;4.50;;
19131;SDS011;9698;51.976;7.570;2023-11-22T15:05:35;5.30;;;4.10;;
19131;SDS011;9698;51.976;7.570;2023-11-22T15:08:03;5.47;;;4.07;;
19131;SDS011;9698;51.976;7.570;2023-11-22T15:10:33;6.80;;;3.87;;